sensor_id;sensor_type;location;lat;lon;timestamp;P1;durP1;ratioP1;P2;durP2;ratioP2
49514;SDS011;35415;47.870;16.058;2023-03-04T00:01:57;26.70;;;12.95;;
49514;SDS011;35415;47.870;16.058;2023-03-04T00:04:24;42.63;;;18.50;;
49514;SDS011;35415;47.870;16.058;2023-03-04T00:06:55;37.72;;;17.42;;
49514;SDS011;35415;47.870;16.058;2023-03-04T00:09:25;35.17;;;15.43;;
49514;SDS011;35415;47.870;16.058;2023-03-04T00:11:56;19.67;;;10.20;;
49514;SDS011;35415;47.870;16.058;2023-03-04T00:14:24;18.98;;;9.93;;
49514;SDS011;35415;47.870;16.058;2023-03-04T00:16:52;71.45;;;29.15;;
49514;SDS011;35415;47.870;16.058;2023-03-04T00:19:19;40.40;;;15.98;;
49514;SDS011;35415;47.870;16.058;2023-03-04T00:21:55;36.50;;;17.15;;
49514;SDS011;35415;47.870;16.058;2023-03-04T00:24:26;26.25;;;12.20;;
49514;SDS011;35415;47.870;16.058;2023-03-04T00:26:56;25.20;;;11.25;;
49514;SDS011;35415;47.870;16.058;2023-03-04T00:29:23;23.52;;;11.13;;
49514;SDS011;35415;47.870;16.058;2023-03-04T00:31:51;17.90;;;9.75;;
49514;SDS011;35415;47.870;16.058;2023-03-04T00:34:27;19.20;;;10.15;;
49514;SDS011;35415;47.870;16.058;2023-03-04T00:36:58;18.48;;;10.05;;
49514;SDS011;35415;47.870;16.058;2023-03-04T00:39:30;19.50;;;10.15;;
49514;SDS011;35415;47.870;16.058;2023-03-04T00:42:02;20.67;;;9.80;;
49514;SDS011;35415;47.870;16.058;2023-03-04T00:44:33;19.00;;;10.48;;
49514;SDS011;35415;47.870;16.058;2023-03-04T00:47:05;19.55;;;10.02;;
49514;SDS011;35415;47.870;16.058;2023-03-04T00:49:33;19.00;;;9.93;;
49514;SDS011;35415;47.870;16.058;2023-03-04T00:52:04;19.58;;;10.60;;
49514;SDS011;35415;47.870;16.058;2023-03-04T00:54:31;19.63;;;9.95;;
49514;SDS011;35415;47.870;16.058;2023-03-04T00:56:59;20.40;;;10.23;;
49514;SDS011;35415;47.870;16.058;2023-03-04T00:59:32;20.20;;;10.90;;
49514;SDS011;35415;47.870;16.058;2023-03-04T01:01:59;23.65;;;11.07;;
49514;SDS011;35415;47.870;16.058;2023-03-04T01:04:33;24.08;;;11.02;;
49514;SDS011;35415;47.870;16.058;2023-03-04T01:07:09;21.05;;;9.85;;
49514;SDS011;35415;47.870;16.058;2023-03-04T01:09:40;17.90;;;9.50;;
49514;SDS011;35415;47.870;16.058;2023-03-04T01:12:08;21.65;;;9.85;;
49514;SDS011;35415;47.870;16.058;2023-03-04T01:14:37;20.05;;;9.50;;
49514;SDS011;35415;47.870;16.058;2023-03-04T01:17:05;19.67;;;10.27;;
49514;SDS011;35415;47.870;16.058;2023-03-04T01:19:32;19.10;;;10.50;;
49514;SDS011;35415;47.870;16.058;2023-03-04T01:22:00;21.33;;;9.93;;
49514;SDS011;35415;47.870;16.058;2023-03-04T01:24:31;19.67;;;10.00;;
49514;SDS011;35415;47.870;16.058;2023-03-04T01:27:01;17.77;;;9.40;;
49514;SDS011;35415;47.870;16.058;2023-03-04T01:29:30;44.42;;;18.92;;
49514;SDS011;35415;47.870;16.058;2023-03-04T01:32:13;86.72;;;35.40;;
49514;SDS011;35415;47.870;16.058;2023-03-04T01:34:44;58.35;;;27.58;;
49514;SDS011;35415;47.870;16.058;2023-03-04T01:37:33;41.83;;;19.55;;
49514;SDS011;35415;47.870;16.058;2023-03-04T01:40:02;35.05;;;15.75;;
49514;SDS011;35415;47.870;16.058;2023-03-04T01:42:33;31.23;;;16.13;;
49514;SDS011;35415;47.870;16.058;2023-03-04T01:45:20;28.15;;;13.90;;
49514;SDS011;35415;47.870;16.058;2023-03-04T01:47:49;26.98;;;12.20;;
49514;SDS011;35415;47.870;16.058;2023-03-04T01:50:19;26.10;;;13.15;;
49514;SDS011;35415;47.870;16.058;2023-03-04T01:52:49;20.97;;;10.37;;
49514;SDS011;35415;47.870;16.058;2023-03-04T01:55:17;27.42;;;12.60;;
49514;SDS011;35415;47.870;16.058;2023-03-04T01:57:46;22.48;;;11.07;;
49514;SDS011;35415;47.870;16.058;2023-03-04T02:00:19;21.77;;;10.88;;
49514;SDS011;35415;47.870;16.058;2023-03-04T02:02:54;23.15;;;12.07;;
49514;SDS011;35415;47.870;16.058;2023-03-04T02:05:24;22.20;;;11.52;;
49514;SDS011;35415;47.870;16.058;2023-03-04T02:07:53;22.23;;;11.77;;
49514;SDS011;35415;47.870;16.058;2023-03-04T02:10:22;20.63;;;11.38;;
49514;SDS011;35415;47.870;16.058;2023-03-04T02:12:50;24.25;;;12.25;;
49514;SDS011;35415;47.870;16.058;2023-03-04T02:15:18;24.25;;;12.25;;
49514;SDS011;35415;47.870;16.058;2023-03-04T02:17:48;25.83;;;12.18;;
49514;SDS011;35415;47.870;16.058;2023-03-04T02:23:06;24.33;;;12.85;;
49514;SDS011;35415;47.870;16.058;2023-03-04T02:25:41;26.90;;;13.05;;
49514;SDS011;35415;47.870;16.058;2023-03-04T02:28:14;24.08;;;11.93;;
49514;SDS011;35415;47.870;16.058;2023-03-04T02:30:43;25.00;;;11.48;;
49514;SDS011;35415;47.870;16.058;2023-03-04T02:33:16;26.65;;;12.48;;
49514;SDS011;35415;47.870;16.058;2023-03-04T02:35:45;26.60;;;13.60;;
49514;SDS011;35415;47.870;16.058;2023-03-04T02:38:14;20.00;;;11.50;;
49514;SDS011;35415;47.870;16.058;2023-03-04T02:40:47;27.33;;;11.90;;
49514;SDS011;35415;47.870;16.058;2023-03-04T02:43:18;26.05;;;11.80;;
49514;SDS011;35415;47.870;16.058;2023-03-04T02:45:47;23.95;;;11.68;;
49514;SDS011;35415;47.870;16.058;2023-03-04T02:48:16;32.75;;;13.48;;
49514;SDS011;35415;47.870;16.058;2023-03-04T02:50:46;26.35;;;12.50;;
49514;SDS011;35415;47.870;16.058;2023-03-04T02:53:15;28.75;;;12.98;;
49514;SDS011;35415;47.870;16.058;2023-03-04T02:55:43;28.30;;;13.05;;
49514;SDS011;35415;47.870;16.058;2023-03-04T02:58:13;29.45;;;12.70;;
49514;SDS011;35415;47.870;16.058;2023-03-04T03:00:42;29.42;;;12.27;;
49514;SDS011;35415;47.870;16.058;2023-03-04T03:03:10;28.08;;;12.32;;
49514;SDS011;35415;47.870;16.058;2023-03-04T03:05:37;23.35;;;12.07;;
49514;SDS011;35415;47.870;16.058;2023-03-04T03:08:05;24.55;;;12.75;;
49514;SDS011;35415;47.870;16.058;2023-03-04T03:10:35;24.92;;;12.90;;
49514;SDS011;35415;47.870;16.058;2023-03-04T03:13:02;24.90;;;13.25;;
49514;SDS011;35415;47.870;16.058;2023-03-04T03:15:29;28.30;;;14.00;;
49514;SDS011;35415;47.870;16.058;2023-03-04T03:17:58;25.90;;;13.10;;
49514;SDS011;35415;47.870;16.058;2023-03-04T03:20:30;35.88;;;14.13;;
49514;SDS011;35415;47.870;16.058;2023-03-04T03:22:59;32.35;;;12.63;;
49514;SDS011;35415;47.870;16.058;2023-03-04T03:25:29;36.88;;;16.70;;
49514;SDS011;35415;47.870;16.058;2023-03-04T03:27:56;38.05;;;15.77;;
49514;SDS011;35415;47.870;16.058;2023-03-04T03:30:28;34.10;;;16.73;;
49514;SDS011;35415;47.870;16.058;2023-03-04T03:33:00;38.22;;;16.27;;
49514;SDS011;35415;47.870;16.058;2023-03-04T03:35:31;33.92;;;17.40;;
49514;SDS011;35415;47.870;16.058;2023-03-04T03:37:59;38.45;;;17.48;;
49514;SDS011;35415;47.870;16.058;2023-03-04T03:40:30;36.70;;;17.13;;
49514;SDS011;35415;47.870;16.058;2023-03-04T03:42:59;35.47;;;15.75;;
49514;SDS011;35415;47.870;16.058;2023-03-04T03:45:27;38.95;;;16.88;;
49514;SDS011;35415;47.870;16.058;2023-03-04T03:48:00;33.75;;;14.98;;
49514;SDS011;35415;47.870;16.058;2023-03-04T03:50:30;39.70;;;16.95;;
49514;SDS011;35415;47.870;16.058;2023-03-04T03:53:00;32.03;;;13.88;;
49514;SDS011;35415;47.870;16.058;2023-03-04T03:55:27;23.80;;;12.30;;
49514;SDS011;35415;47.870;16.058;2023-03-04T03:57:55;26.27;;;12.68;;
49514;SDS011;35415;47.870;16.058;2023-03-04T04:00:22;31.13;;;13.63;;
49514;SDS011;35415;47.870;16.058;2023-03-04T04:02:53;32.05;;;14.73;;
49514;SDS011;35415;47.870;16.058;2023-03-04T04:05:25;30.20;;;13.20;;
49514;SDS011;35415;47.870;16.058;2023-03-04T04:07:53;32.15;;;14.00;;
49514;SDS011;35415;47.870;16.058;2023-03-04T04:10:21;30.88;;;14.13;;
49514;SDS011;35415;47.870;16.058;2023-03-04T04:12:48;31.67;;;13.95;;
49514;SDS011;35415;47.870;16.058;2023-03-04T04:15:15;32.92;;;14.60;;
49514;SDS011;35415;47.870;16.058;2023-03-04T04:17:42;30.70;;;13.98;;
49514;SDS011;35415;47.870;16.058;2023-03-04T04:20:10;30.83;;;15.00;;
49514;SDS011;35415;47.870;16.058;2023-03-04T04:22:39;30.60;;;12.68;;
49514;SDS011;35415;47.870;16.058;2023-03-04T04:25:07;31.60;;;14.30;;
49514;SDS011;35415;47.870;16.058;2023-03-04T04:27:37;23.10;;;11.88;;
49514;SDS011;35415;47.870;16.058;2023-03-04T04:30:04;29.13;;;12.77;;
49514;SDS011;35415;47.870;16.058;2023-03-04T04:32:33;33.13;;;14.07;;
49514;SDS011;35415;47.870;16.058;2023-03-04T04:35:00;28.75;;;12.27;;
49514;SDS011;35415;47.870;16.058;2023-03-04T04:37:27;27.73;;;13.70;;
49514;SDS011;35415;47.870;16.058;2023-03-04T04:39:56;27.95;;;13.63;;
49514;SDS011;35415;47.870;16.058;2023-03-04T04:42:23;28.35;;;13.80;;
49514;SDS011;35415;47.870;16.058;2023-03-04T04:44:51;24.60;;;12.45;;
49514;SDS011;35415;47.870;16.058;2023-03-04T04:47:18;24.13;;;11.80;;
49514;SDS011;35415;47.870;16.058;2023-03-04T04:49:46;28.13;;;13.32;;
49514;SDS011;35415;47.870;16.058;2023-03-04T04:52:13;29.48;;;13.40;;
49514;SDS011;35415;47.870;16.058;2023-03-04T04:54:42;29.85;;;13.45;;
49514;SDS011;35415;47.870;16.058;2023-03-04T04:57:11;27.08;;;12.43;;
49514;SDS011;35415;47.870;16.058;2023-03-04T04:59:39;32.10;;;14.38;;
49514;SDS011;35415;47.870;16.058;2023-03-04T05:02:06;30.13;;;14.30;;
49514;SDS011;35415;47.870;16.058;2023-03-04T05:04:36;31.00;;;14.77;;
49514;SDS011;35415;47.870;16.058;2023-03-04T05:07:03;23.45;;;10.65;;
49514;SDS011;35415;47.870;16.058;2023-03-04T05:09:30;25.52;;;12.27;;
49514;SDS011;35415;47.870;16.058;2023-03-04T05:11:58;28.13;;;12.85;;
49514;SDS011;35415;47.870;16.058;2023-03-04T05:14:26;20.55;;;10.38;;
49514;SDS011;35415;47.870;16.058;2023-03-04T05:16:54;22.70;;;10.38;;
49514;SDS011;35415;47.870;16.058;2023-03-04T05:19:21;30.25;;;14.63;;
49514;SDS011;35415;47.870;16.058;2023-03-04T05:21:51;21.20;;;11.10;;
49514;SDS011;35415;47.870;16.058;2023-03-04T05:24:20;27.55;;;13.55;;
49514;SDS011;35415;47.870;16.058;2023-03-04T05:26:47;26.88;;;13.10;;
49514;SDS011;35415;47.870;16.058;2023-03-04T05:29:14;27.30;;;14.23;;
49514;SDS011;35415;47.870;16.058;2023-03-04T05:31:43;36.58;;;15.20;;
49514;SDS011;35415;47.870;16.058;2023-03-04T05:34:10;27.15;;;12.48;;
49514;SDS011;35415;47.870;16.058;2023-03-04T05:36:39;38.40;;;13.15;;
49514;SDS011;35415;47.870;16.058;2023-03-04T05:39:06;25.67;;;12.55;;
49514;SDS011;35415;47.870;16.058;2023-03-04T05:41:34;22.95;;;11.35;;
49514;SDS011;35415;47.870;16.058;2023-03-04T05:44:01;31.33;;;13.38;;
49514;SDS011;35415;47.870;16.058;2023-03-04T05:46:29;27.00;;;12.75;;
49514;SDS011;35415;47.870;16.058;2023-03-04T05:49:00;27.60;;;12.50;;
49514;SDS011;35415;47.870;16.058;2023-03-04T05:51:27;25.17;;;11.13;;
49514;SDS011;35415;47.870;16.058;2023-03-04T05:53:54;32.05;;;13.20;;
49514;SDS011;35415;47.870;16.058;2023-03-04T05:56:22;28.75;;;12.80;;
49514;SDS011;35415;47.870;16.058;2023-03-04T05:58:49;21.08;;;10.90;;
49514;SDS011;35415;47.870;16.058;2023-03-04T06:01:16;26.55;;;13.02;;
49514;SDS011;35415;47.870;16.058;2023-03-04T06:03:44;24.27;;;12.15;;
49514;SDS011;35415;47.870;16.058;2023-03-04T06:06:16;24.55;;;13.80;;
49514;SDS011;35415;47.870;16.058;2023-03-04T06:08:45;29.30;;;13.18;;
49514;SDS011;35415;47.870;16.058;2023-03-04T06:11:12;27.75;;;12.65;;
49514;SDS011;35415;47.870;16.058;2023-03-04T06:13:42;24.73;;;10.48;;
49514;SDS011;35415;47.870;16.058;2023-03-04T06:16:13;33.13;;;14.30;;
49514;SDS011;35415;47.870;16.058;2023-03-04T06:18:46;30.70;;;13.20;;
49514;SDS011;35415;47.870;16.058;2023-03-04T06:21:17;23.17;;;11.65;;
49514;SDS011;35415;47.870;16.058;2023-03-04T06:23:45;24.20;;;10.55;;
49514;SDS011;35415;47.870;16.058;2023-03-04T06:26:19;23.20;;;12.30;;
49514;SDS011;35415;47.870;16.058;2023-03-04T06:29:05;27.35;;;12.20;;
49514;SDS011;35415;47.870;16.058;2023-03-04T06:31:33;19.80;;;11.00;;
49514;SDS011;35415;47.870;16.058;2023-03-04T06:34:06;31.92;;;13.60;;
49514;SDS011;35415;47.870;16.058;2023-03-04T06:36:42;26.05;;;12.90;;
49514;SDS011;35415;47.870;16.058;2023-03-04T06:39:09;22.30;;;11.15;;
49514;SDS011;35415;47.870;16.058;2023-03-04T06:41:45;24.85;;;12.45;;
49514;SDS011;35415;47.870;16.058;2023-03-04T06:44:13;27.25;;;12.20;;
49514;SDS011;35415;47.870;16.058;2023-03-04T06:46:43;28.92;;;13.30;;
49514;SDS011;35415;47.870;16.058;2023-03-04T06:49:16;20.60;;;11.20;;
49514;SDS011;35415;47.870;16.058;2023-03-04T06:51:52;27.60;;;12.15;;
49514;SDS011;35415;47.870;16.058;2023-03-04T06:54:39;26.83;;;12.50;;
49514;SDS011;35415;47.870;16.058;2023-03-04T06:57:08;24.65;;;12.75;;
49514;SDS011;35415;47.870;16.058;2023-03-04T06:59:35;29.40;;;11.05;;
49514;SDS011;35415;47.870;16.058;2023-03-04T07:02:03;38.67;;;12.35;;
49514;SDS011;35415;47.870;16.058;2023-03-04T07:04:31;30.58;;;13.85;;
49514;SDS011;35415;47.870;16.058;2023-03-04T07:07:01;22.10;;;12.63;;
49514;SDS011;35415;47.870;16.058;2023-03-04T07:09:28;30.58;;;12.90;;
49514;SDS011;35415;47.870;16.058;2023-03-04T07:11:56;25.92;;;13.15;;
49514;SDS011;35415;47.870;16.058;2023-03-04T07:14:23;31.02;;;14.40;;
49514;SDS011;35415;47.870;16.058;2023-03-04T07:16:52;22.45;;;11.15;;
49514;SDS011;35415;47.870;16.058;2023-03-04T07:19:21;25.23;;;12.18;;
49514;SDS011;35415;47.870;16.058;2023-03-04T07:21:50;24.83;;;12.32;;
49514;SDS011;35415;47.870;16.058;2023-03-04T07:24:19;23.10;;;12.20;;
49514;SDS011;35415;47.870;16.058;2023-03-04T07:26:58;26.70;;;13.20;;
49514;SDS011;35415;47.870;16.058;2023-03-04T07:29:27;21.58;;;10.98;;
49514;SDS011;35415;47.870;16.058;2023-03-04T07:31:55;29.77;;;12.13;;
49514;SDS011;35415;47.870;16.058;2023-03-04T07:34:34;24.90;;;12.75;;
49514;SDS011;35415;47.870;16.058;2023-03-04T07:37:01;25.85;;;12.60;;
49514;SDS011;35415;47.870;16.058;2023-03-04T07:39:31;28.98;;;12.68;;
49514;SDS011;35415;47.870;16.058;2023-03-04T07:42:06;26.13;;;11.05;;
49514;SDS011;35415;47.870;16.058;2023-03-04T07:44:34;30.65;;;12.07;;
49514;SDS011;35415;47.870;16.058;2023-03-04T07:47:03;25.35;;;12.10;;
49514;SDS011;35415;47.870;16.058;2023-03-04T07:49:30;26.05;;;13.00;;
49514;SDS011;35415;47.870;16.058;2023-03-04T07:51:57;20.60;;;10.25;;
49514;SDS011;35415;47.870;16.058;2023-03-04T07:54:31;32.17;;;13.13;;
49514;SDS011;35415;47.870;16.058;2023-03-04T07:57:00;28.92;;;12.30;;
49514;SDS011;35415;47.870;16.058;2023-03-04T07:59:29;27.38;;;12.82;;
49514;SDS011;35415;47.870;16.058;2023-03-04T08:01:56;26.58;;;11.25;;
49514;SDS011;35415;47.870;16.058;2023-03-04T08:04:23;24.02;;;10.40;;
49514;SDS011;35415;47.870;16.058;2023-03-04T08:06:51;22.60;;;11.75;;
49514;SDS011;35415;47.870;16.058;2023-03-04T08:09:18;31.98;;;13.52;;
49514;SDS011;35415;47.870;16.058;2023-03-04T08:11:47;23.65;;;10.35;;
49514;SDS011;35415;47.870;16.058;2023-03-04T08:14:17;26.20;;;11.68;;
49514;SDS011;35415;47.870;16.058;2023-03-04T08:16:45;22.48;;;11.00;;
49514;SDS011;35415;47.870;16.058;2023-03-04T08:19:14;25.90;;;12.63;;
49514;SDS011;35415;47.870;16.058;2023-03-04T08:21:43;22.15;;;12.32;;
49514;SDS011;35415;47.870;16.058;2023-03-04T08:24:11;23.10;;;11.25;;
49514;SDS011;35415;47.870;16.058;2023-03-04T08:26:40;21.88;;;11.52;;
49514;SDS011;35415;47.870;16.058;2023-03-04T08:29:22;25.75;;;12.57;;
49514;SDS011;35415;47.870;16.058;2023-03-04T08:32:05;29.63;;;11.77;;
49514;SDS011;35415;47.870;16.058;2023-03-04T08:34:35;23.55;;;11.73;;
49514;SDS011;35415;47.870;16.058;2023-03-04T08:37:05;30.10;;;10.50;;
49514;SDS011;35415;47.870;16.058;2023-03-04T08:39:39;22.98;;;11.38;;
49514;SDS011;35415;47.870;16.058;2023-03-04T08:42:10;15.25;;;8.57;;
49514;SDS011;35415;47.870;16.058;2023-03-04T08:44:46;21.35;;;10.18;;
49514;SDS011;35415;47.870;16.058;2023-03-04T08:47:13;20.85;;;9.75;;
49514;SDS011;35415;47.870;16.058;2023-03-04T08:49:41;26.95;;;11.95;;
49514;SDS011;35415;47.870;16.058;2023-03-04T08:52:10;25.80;;;10.95;;
49514;SDS011;35415;47.870;16.058;2023-03-04T08:54:38;24.52;;;9.10;;
49514;SDS011;35415;47.870;16.058;2023-03-04T08:57:08;19.83;;;9.57;;
49514;SDS011;35415;47.870;16.058;2023-03-04T08:59:36;22.30;;;10.48;;
49514;SDS011;35415;47.870;16.058;2023-03-04T09:02:06;27.58;;;11.93;;
49514;SDS011;35415;47.870;16.058;2023-03-04T09:04:35;22.10;;;11.00;;
49514;SDS011;35415;47.870;16.058;2023-03-04T09:07:03;17.58;;;9.00;;
49514;SDS011;35415;47.870;16.058;2023-03-04T09:09:31;23.23;;;11.02;;
49514;SDS011;35415;47.870;16.058;2023-03-04T09:11:59;20.90;;;10.85;;
49514;SDS011;35415;47.870;16.058;2023-03-04T09:14:37;27.67;;;11.18;;
49514;SDS011;35415;47.870;16.058;2023-03-04T09:17:07;23.02;;;10.43;;
49514;SDS011;35415;47.870;16.058;2023-03-04T09:19:34;32.10;;;11.50;;
49514;SDS011;35415;47.870;16.058;2023-03-04T09:22:02;27.65;;;9.82;;
49514;SDS011;35415;47.870;16.058;2023-03-04T09:24:31;24.45;;;10.27;;
49514;SDS011;35415;47.870;16.058;2023-03-04T09:26:59;19.75;;;9.45;;
49514;SDS011;35415;47.870;16.058;2023-03-04T09:29:26;18.48;;;9.93;;
49514;SDS011;35415;47.870;16.058;2023-03-04T09:31:55;17.00;;;9.38;;
49514;SDS011;35415;47.870;16.058;2023-03-04T09:34:28;17.17;;;8.63;;
49514;SDS011;35415;47.870;16.058;2023-03-04T09:36:55;19.92;;;9.57;;
49514;SDS011;35415;47.870;16.058;2023-03-04T09:39:23;21.88;;;10.05;;
49514;SDS011;35415;47.870;16.058;2023-03-04T09:41:51;23.05;;;8.75;;
49514;SDS011;35415;47.870;16.058;2023-03-04T09:44:23;22.65;;;8.82;;
49514;SDS011;35415;47.870;16.058;2023-03-04T09:46:55;17.23;;;8.05;;
49514;SDS011;35415;47.870;16.058;2023-03-04T09:49:29;22.35;;;8.85;;
49514;SDS011;35415;47.870;16.058;2023-03-04T09:51:59;18.13;;;9.02;;
49514;SDS011;35415;47.870;16.058;2023-03-04T09:54:50;19.45;;;7.68;;
49514;SDS011;35415;47.870;16.058;2023-03-04T09:57:26;18.75;;;8.70;;
49514;SDS011;35415;47.870;16.058;2023-03-04T10:00:06;18.08;;;8.15;;
49514;SDS011;35415;47.870;16.058;2023-03-04T10:02:45;20.45;;;8.85;;
49514;SDS011;35415;47.870;16.058;2023-03-04T10:05:29;19.95;;;9.23;;
49514;SDS011;35415;47.870;16.058;2023-03-04T10:08:00;16.25;;;8.40;;
49514;SDS011;35415;47.870;16.058;2023-03-04T10:10:45;20.58;;;8.43;;
49514;SDS011;35415;47.870;16.058;2023-03-04T10:13:17;19.60;;;8.10;;
49514;SDS011;35415;47.870;16.058;2023-03-04T10:15:53;15.50;;;7.53;;
49514;SDS011;35415;47.870;16.058;2023-03-04T10:18:23;14.43;;;6.63;;
49514;SDS011;35415;47.870;16.058;2023-03-04T10:20:59;11.05;;;6.18;;
49514;SDS011;35415;47.870;16.058;2023-03-04T10:23:30;21.35;;;6.97;;
49514;SDS011;35415;47.870;16.058;2023-03-04T10:26:07;13.27;;;6.88;;
49514;SDS011;35415;47.870;16.058;2023-03-04T10:28:39;12.38;;;5.35;;
49514;SDS011;35415;47.870;16.058;2023-03-04T10:31:08;14.75;;;6.63;;
49514;SDS011;35415;47.870;16.058;2023-03-04T10:33:46;14.98;;;6.50;;
49514;SDS011;35415;47.870;16.058;2023-03-04T10:36:29;11.13;;;5.28;;
49514;SDS011;35415;47.870;16.058;2023-03-04T10:39:07;10.45;;;5.82;;
49514;SDS011;35415;47.870;16.058;2023-03-04T10:41:41;13.30;;;5.05;;
49514;SDS011;35415;47.870;16.058;2023-03-04T10:44:12;25.02;;;6.80;;
49514;SDS011;35415;47.870;16.058;2023-03-04T10:46:43;14.23;;;6.03;;
49514;SDS011;35415;47.870;16.058;2023-03-04T10:49:14;13.02;;;5.63;;
49514;SDS011;35415;47.870;16.058;2023-03-04T10:51:44;10.15;;;5.40;;
49514;SDS011;35415;47.870;16.058;2023-03-04T10:54:21;12.35;;;5.38;;
49514;SDS011;35415;47.870;16.058;2023-03-04T10:56:59;10.68;;;5.40;;
49514;SDS011;35415;47.870;16.058;2023-03-04T10:59:33;11.73;;;5.88;;
49514;SDS011;35415;47.870;16.058;2023-03-04T11:02:15;16.53;;;5.93;;
49514;SDS011;35415;47.870;16.058;2023-03-04T11:04:53;13.95;;;5.13;;
49514;SDS011;35415;47.870;16.058;2023-03-04T11:07:25;13.00;;;5.32;;
49514;SDS011;35415;47.870;16.058;2023-03-04T11:09:53;39.65;;;6.20;;
49514;SDS011;35415;47.870;16.058;2023-03-04T11:12:30;16.65;;;5.20;;
49514;SDS011;35415;47.870;16.058;2023-03-04T11:15:01;13.00;;;4.97;;
49514;SDS011;35415;47.870;16.058;2023-03-04T11:17:38;11.75;;;5.70;;
49514;SDS011;35415;47.870;16.058;2023-03-04T11:20:11;11.32;;;4.85;;
49514;SDS011;35415;47.870;16.058;2023-03-04T11:22:46;8.15;;;4.30;;
49514;SDS011;35415;47.870;16.058;2023-03-04T11:25:19;12.05;;;4.90;;
49514;SDS011;35415;47.870;16.058;2023-03-04T11:27:51;13.18;;;6.47;;
49514;SDS011;35415;47.870;16.058;2023-03-04T11:30:30;14.15;;;5.22;;
49514;SDS011;35415;47.870;16.058;2023-03-04T11:33:05;13.35;;;6.10;;
49514;SDS011;35415;47.870;16.058;2023-03-04T11:35:43;13.05;;;6.13;;
49514;SDS011;35415;47.870;16.058;2023-03-04T11:38:20;10.00;;;5.10;;
49514;SDS011;35415;47.870;16.058;2023-03-04T11:40:53;19.05;;;7.07;;
49514;SDS011;35415;47.870;16.058;2023-03-04T11:43:24;12.70;;;5.32;;
49514;SDS011;35415;47.870;16.058;2023-03-04T11:46:00;10.65;;;5.20;;
49514;SDS011;35415;47.870;16.058;2023-03-04T11:48:45;14.70;;;5.63;;
49514;SDS011;35415;47.870;16.058;2023-03-04T11:51:22;17.00;;;5.95;;
49514;SDS011;35415;47.870;16.058;2023-03-04T11:53:58;14.05;;;5.45;;
49514;SDS011;35415;47.870;16.058;2023-03-04T11:56:38;11.80;;;5.80;;
49514;SDS011;35415;47.870;16.058;2023-03-04T11:59:16;8.80;;;5.32;;
49514;SDS011;35415;47.870;16.058;2023-03-04T12:02:03;12.50;;;5.60;;
49514;SDS011;35415;47.870;16.058;2023-03-04T12:04:49;11.23;;;5.75;;
49514;SDS011;35415;47.870;16.058;2023-03-04T12:07:42;13.07;;;5.90;;
49514;SDS011;35415;47.870;16.058;2023-03-04T12:10:23;10.27;;;5.47;;
49514;SDS011;35415;47.870;16.058;2023-03-04T12:13:06;20.90;;;6.20;;
49514;SDS011;35415;47.870;16.058;2023-03-04T12:15:48;12.75;;;6.35;;
49514;SDS011;35415;47.870;16.058;2023-03-04T12:18:32;11.32;;;5.93;;
49514;SDS011;35415;47.870;16.058;2023-03-04T12:21:14;13.38;;;5.60;;
49514;SDS011;35415;47.870;16.058;2023-03-04T12:24:00;15.82;;;6.22;;
49514;SDS011;35415;47.870;16.058;2023-03-04T12:26:42;11.07;;;5.43;;
49514;SDS011;35415;47.870;16.058;2023-03-04T12:29:17;11.75;;;6.53;;
49514;SDS011;35415;47.870;16.058;2023-03-04T12:31:53;13.00;;;6.05;;
49514;SDS011;35415;47.870;16.058;2023-03-04T12:34:27;12.82;;;5.85;;
49514;SDS011;35415;47.870;16.058;2023-03-04T12:37:05;10.90;;;5.28;;
49514;SDS011;35415;47.870;16.058;2023-03-04T12:43:01;15.93;;;6.15;;
49514;SDS011;35415;47.870;16.058;2023-03-04T12:45:43;15.52;;;6.28;;
49514;SDS011;35415;47.870;16.058;2023-03-04T12:48:21;10.65;;;5.40;;
49514;SDS011;35415;47.870;16.058;2023-03-04T12:51:01;16.08;;;5.47;;
49514;SDS011;35415;47.870;16.058;2023-03-04T12:53:46;9.63;;;5.05;;
49514;SDS011;35415;47.870;16.058;2023-03-04T12:56:24;13.98;;;5.55;;
49514;SDS011;35415;47.870;16.058;2023-03-04T12:59:01;17.88;;;6.95;;
49514;SDS011;35415;47.870;16.058;2023-03-04T13:01:31;32.47;;;6.32;;
49514;SDS011;35415;47.870;16.058;2023-03-04T13:04:08;15.25;;;5.47;;
49514;SDS011;35415;47.870;16.058;2023-03-04T13:06:52;12.05;;;6.30;;
49514;SDS011;35415;47.870;16.058;2023-03-04T13:12:02;14.65;;;4.80;;
49514;SDS011;35415;47.870;16.058;2023-03-04T13:14:41;20.70;;;6.15;;
49514;SDS011;35415;47.870;16.058;2023-03-04T13:17:53;14.20;;;5.80;;
49514;SDS011;35415;47.870;16.058;2023-03-04T13:20:32;10.82;;;4.93;;
49514;SDS011;35415;47.870;16.058;2023-03-04T13:23:03;10.30;;;4.75;;
49514;SDS011;35415;47.870;16.058;2023-03-04T13:28:50;11.05;;;5.53;;
49514;SDS011;35415;47.870;16.058;2023-03-04T13:33:51;12.30;;;5.90;;
49514;SDS011;35415;47.870;16.058;2023-03-04T13:39:29;10.38;;;4.65;;
49514;SDS011;35415;47.870;16.058;2023-03-04T13:42:01;13.52;;;4.82;;
49514;SDS011;35415;47.870;16.058;2023-03-04T13:44:30;12.85;;;5.13;;
49514;SDS011;35415;47.870;16.058;2023-03-04T13:47:24;8.25;;;5.03;;
49514;SDS011;35415;47.870;16.058;2023-03-04T13:53:21;14.30;;;5.05;;
49514;SDS011;35415;47.870;16.058;2023-03-04T13:56:27;11.13;;;5.20;;
49514;SDS011;35415;47.870;16.058;2023-03-04T13:59:27;16.25;;;6.00;;
49514;SDS011;35415;47.870;16.058;2023-03-04T14:02:09;14.80;;;5.35;;
49514;SDS011;35415;47.870;16.058;2023-03-04T14:04:55;14.38;;;5.13;;
49514;SDS011;35415;47.870;16.058;2023-03-04T14:07:24;10.30;;;5.88;;
49514;SDS011;35415;47.870;16.058;2023-03-04T14:09:56;12.40;;;4.95;;
49514;SDS011;35415;47.870;16.058;2023-03-04T14:12:27;12.88;;;5.32;;
49514;SDS011;35415;47.870;16.058;2023-03-04T14:14:57;11.15;;;5.55;;
49514;SDS011;35415;47.870;16.058;2023-03-04T14:17:28;12.50;;;4.95;;
49514;SDS011;35415;47.870;16.058;2023-03-04T14:20:00;10.88;;;4.85;;
49514;SDS011;35415;47.870;16.058;2023-03-04T14:22:45;10.70;;;5.10;;
49514;SDS011;35415;47.870;16.058;2023-03-04T14:25:19;12.48;;;5.28;;
49514;SDS011;35415;47.870;16.058;2023-03-04T14:27:48;12.80;;;5.85;;
49514;SDS011;35415;47.870;16.058;2023-03-04T14:30:20;9.85;;;5.03;;
49514;SDS011;35415;47.870;16.058;2023-03-04T14:32:49;11.57;;;5.03;;
49514;SDS011;35415;47.870;16.058;2023-03-04T14:35:21;15.35;;;6.82;;
49514;SDS011;35415;47.870;16.058;2023-03-04T14:37:52;15.25;;;5.22;;
49514;SDS011;35415;47.870;16.058;2023-03-04T14:40:24;15.48;;;5.55;;
49514;SDS011;35415;47.870;16.058;2023-03-04T14:42:55;12.45;;;5.65;;
49514;SDS011;35415;47.870;16.058;2023-03-04T14:45:27;15.18;;;5.60;;
49514;SDS011;35415;47.870;16.058;2023-03-04T14:48:00;11.55;;;5.32;;
49514;SDS011;35415;47.870;16.058;2023-03-04T14:50:36;10.45;;;5.00;;
49514;SDS011;35415;47.870;16.058;2023-03-04T14:53:15;12.15;;;5.63;;
49514;SDS011;35415;47.870;16.058;2023-03-04T14:55:54;10.05;;;5.43;;
49514;SDS011;35415;47.870;16.058;2023-03-04T14:58:23;11.00;;;5.10;;
49514;SDS011;35415;47.870;16.058;2023-03-04T15:01:05;11.75;;;5.65;;
49514;SDS011;35415;47.870;16.058;2023-03-04T15:03:40;12.70;;;5.38;;